Halstead, United Kingdom
Current Conditions -  °F | °C
As of 10:50 PM on Thursday 18 Dec 2014 (Local Time) from EGSS Reporting Station
Broken Clouds Broken Clouds  
Wind Chill: 54°   Ceiling: 1000
Heat Index: 54°   Visibility: 6mi
Dew Point: 52°   Wind: 21mph
Humidity: 94%   Direction: 230°SW
Pressure: 29.77"   Gusts: NA
Location:  51.94°N, 0.63°E
Report Text: EGSS 182250Z 23018KT 9999 BKN010 12/11 Q1008
Loading
Personal Weather Stations






























Interactive Weather Map New forecast layout! Learn more

10-Day Weather Forecast

Advertisements
Track Severe Weather on mobile